WetterOnline ( https://www.wetteronline.de )

Wetter aktuell Gottfrieding

Aktuelles Wetter: Gottfrieding (350m)

6-stündlich | Neueste Meldungen
Ortszeit Temperatur Wetter
So, 25.10. 19:00 6.8° C Nebel
So, 25.10. 13:00 11.1° C bedeckt
So, 25.10. 7:00 5.9° C Nebel
So, 25.10. 2:00 5.1° C Nebel
Sa, 24.10. 20:00 8.5° C wolkenlos
Sa, 24.10. 14:00 15.0° C bedeckt
Sa, 24.10. 8:00 12.1° C bedeckt
Sa, 24.10. 2:00 13.9° C bewölkt
Ortszeit Temperatur Wetter
So, 25.10. 20:00 5.8° C Nebel
So, 25.10. 19:50 5.8° C Nebel
So, 25.10. 19:40 5.8° C Nebel
So, 25.10. 19:30 5.6° C Nebel
So, 25.10. 19:20 5.6° C Nebel
So, 25.10. 19:10 6.8° C Nebel
So, 25.10. 19:00 6.8° C Nebel
So, 25.10. 18:30 8.1° C wolkenlos
So, 25.10. 18:00 8.6° C fast wolkenlos
So, 25.10. 17:30 9.4° C leicht bewölkt
So, 25.10. 17:00 10.3° C wolkenlos
Ortszeit Relative Feuchte Sichtweite
So, 25.10. 19:00 100% 0.3 km
So, 25.10. 13:00 87% 30 km
So, 25.10. 7:00 100% 0.2 km
So, 25.10. 2:00 100% 100 m
Sa, 24.10. 20:00 99% 12 km
Sa, 24.10. 14:00 80% 40 km
Sa, 24.10. 8:00 97% 55 km
Sa, 24.10. 2:00 89% 55 km
Ortszeit Relative Feuchte Sichtweite
So, 25.10. 20:00 100% 0.2 km
So, 25.10. 19:50 100% -
So, 25.10. 19:40 100% -
So, 25.10. 19:30 99% 0.2 km
So, 25.10. 19:20 99% -
So, 25.10. 19:10 100% -
So, 25.10. 19:00 100% 0.3 km
So, 25.10. 18:30 100% 2.5 km
So, 25.10. 18:00 99% 5.0 km
So, 25.10. 17:30 96% 9 km
So, 25.10. 17:00 91% 17 km
Ortszeit Niederschlagsmenge Niederschlagsart
So, 25.10. 19:00 0.1 l/m2 in 12 Std. -
So, 25.10. 13:00 0.1 l/m2 in 6 Std. -
So, 25.10. 7:00 0.2 l/m2 in 12 Std. -
So, 25.10. 2:00 0.0 l/m2 in 6 Std. -
Sa, 24.10. 20:00 2 l/m2 in 12 Std. -
Sa, 24.10. 14:00 2 l/m2 in 6 Std. Regen
Sa, 24.10. 8:00 9 l/m2 in 12 Std. Regen
Sa, 24.10. 2:00 0.1 l/m2 in 6 Std. Regen
Ortszeit Niederschlagsmenge Niederschlagsart
So, 25.10. 20:00 0.0 l/m2 in 1 Std. -
So, 25.10. 19:50 keine Meldung -
So, 25.10. 19:40 keine Meldung -
So, 25.10. 19:30 0.0 l/m2 in 1 Std. -
So, 25.10. 19:20 keine Meldung -
So, 25.10. 19:10 keine Meldung -
So, 25.10. 19:00 0.0 l/m2 in 1 Std. -
So, 25.10. 18:30 0.0 l/m2 in 1 Std. -
So, 25.10. 18:00 0.0 l/m2 in 1 Std. -
So, 25.10. 17:30 0.0 l/m2 in 1 Std. -
So, 25.10. 17:00 0.0 l/m2 in 1 Std. -
Ortszeit Stärke Spitze Richtung
km/h Bft. km/h Grad Sektor
So, 25.10. 19:00 4 1 18 90° O
So, 25.10. 13:00 11 2 19 140° SO
So, 25.10. 7:00 7 2 11 110° O
So, 25.10. 2:00 4 1 11 20° N
Sa, 24.10. 20:00 0 0 18 - -
Sa, 24.10. 14:00 11 2 20 290° W
Sa, 24.10. 8:00 9 2 28 260° W
Sa, 24.10. 2:00 14 3 22 250° W
Ortszeit Stärke Spitze Richtung
km/h Bft. km/h Grad Sektor
So, 25.10. 20:00 4 1 7 160° S
So, 25.10. 19:50 4 1 - 160° S
So, 25.10. 19:40 4 1 - 250° W
So, 25.10. 19:30 2 1 4 10° N
So, 25.10. 19:20 2 1 - 10° N
So, 25.10. 19:10 4 1 - 330° NW
So, 25.10. 19:00 4 1 7 90° O
So, 25.10. 18:30 4 1 7 70° O
So, 25.10. 18:00 4 1 7 110° O
So, 25.10. 17:30 6 1 6 70° O
So, 25.10. 17:00 4 1 11 70° O
Ortszeit Untergrenze Bedeckung Gattung
total tief tief mittel hoch
So, 25.10. 19:00 10500 m 1/8 0/8 - - -
So, 25.10. 13:00 330 m 8/8 8/8 - - -
So, 25.10. 7:00 <30 m 8/8 0/8 - - -
So, 25.10. 2:00 <30 m 8/8 0/8 - - -
Sa, 24.10. 20:00 - 0/8 0/8 - - -
Sa, 24.10. 14:00 1320 m 8/8 8/8 - - -
Sa, 24.10. 8:00 330 m 8/8 8/8 - - -
Sa, 24.10. 2:00 450 m 7/8 7/8 - - -
Ortszeit Bedeckungsgrad in Achtel und Wolkenuntergrenze
So, 25.10. 20:00 6(<30m) 7(8700m) 8(10500m)
So, 25.10. 19:50 6(<30m) 7(8700m) 8(10500m)
So, 25.10. 19:40 5(<30m) 7(9000m) 7(10500m)
So, 25.10. 19:30 3(<30m) 5(8400m) 6(9000m)
So, 25.10. 19:20 3(<30m) 5(8400m) 6(9000m)
So, 25.10. 19:10 4(<30m) 5(8400m)
So, 25.10. 19:00 1(10500m) 3(10500m)
So, 25.10. 18:30 keine Wolken
So, 25.10. 18:00 2(7800m)
So, 25.10. 17:30 5(8100m)
So, 25.10. 17:00 keine Wolken
Ortszeit Luftdruck NN (hPa) Tendenz (hPa in 3 Std.)
So, 25.10. 19:00 1009 - 0,9
So, 25.10. 13:00 1011 - 2,0
So, 25.10. 7:00 1015 - 0,7
So, 25.10. 2:00 1018 - 1,4
Sa, 24.10. 20:00 1019 + 0,1
Sa, 24.10. 14:00 1019 + 0,2
Sa, 24.10. 8:00 1017 + 0,9
Sa, 24.10. 2:00 1015 + 0,4
Ortszeit Luftdruck NN (hPa) Tendenz (hPa in 3 Std.)
So, 25.10. 20:00 1009 - 0,8
So, 25.10. 19:50 1009 keine Meldung
So, 25.10. 19:40 1009 keine Meldung
So, 25.10. 19:30 1009 - 0,8
So, 25.10. 19:20 1009 keine Meldung
So, 25.10. 19:10 1009 keine Meldung
So, 25.10. 19:00 1009 - 0,9
So, 25.10. 18:30 1009 - 0,7
So, 25.10. 18:00 1009 - 0,8
So, 25.10. 17:30 1009 - 1,1
So, 25.10. 17:00 1009 - 1,4
Ortszeit Schneehöhe (cm)
So, 25.10. 19:00 0
So, 25.10. 13:00 0
So, 25.10. 7:00 0
So, 25.10. 2:00 0
Sa, 24.10. 20:00 0
Sa, 24.10. 14:00 0
Sa, 24.10. 8:00 0
Sa, 24.10. 2:00 0
Ortszeit Schneehöhe (cm)
So, 25.10. 20:00 0
So, 25.10. 19:50 0
So, 25.10. 19:40 0
So, 25.10. 19:30 0
So, 25.10. 19:20 0
So, 25.10. 19:10 0
So, 25.10. 19:00 0
So, 25.10. 18:30 0
So, 25.10. 18:00 0
So, 25.10. 17:30 0
So, 25.10. 17:00 0
Link zu dieser Seite / Seite empfehlen

Das Wetter in ...